Time;durP1;ratioP1;P1;durP2;ratioP2;P2;SDS_P1;SDS_P2;PMS_P1;PMS_P2;Temp;Humidity;BMP_temperature;BMP_pressure;BME280_temperature;BME280_humidity;BME280_pressure;Samples;Min_cycle;Max_cycle;Signal;HPM_P1;HPM_P2
2022/08/30 02:38:18;;;;;;;22.60;20.80;;;16.60;99.90;;;;;;4972722;28;20478;-72
2022/08/30 02:40:45;;;;;;;24.33;22.27;;;16.70;99.90;;;;;;4973724;28;20455;-71
2022/08/30 02:43:12;;;;;;;22.93;21.13;;;16.60;99.90;;;;;;4973461;28;20483;-71
2022/08/30 02:45:38;;;;;;;25.27;23.00;;;16.70;99.90;;;;;;4973481;28;20448;-72
2022/08/30 02:48:05;;;;;;;24.27;21.53;;;16.70;99.90;;;;;;4973596;28;20456;-71
2022/08/30 02:50:32;;;;;;;26.03;21.87;;;16.70;99.90;;;;;;4973464;28;20463;-72
2022/08/30 02:52:58;;;;;;;23.47;21.17;;;16.70;99.90;;;;;;4972910;28;20455;-72
2022/08/30 02:55:27;;;;;;;23.10;20.83;;;16.70;99.90;;;;;;4972946;28;20773;-72
2022/08/30 02:57:53;;;;;;;24.03;22.00;;;16.80;99.90;;;;;;4972990;28;20462;-72
2022/08/30 03:00:21;;;;;;;25.23;23.00;;;16.90;99.90;;;;;;4972802;28;20452;-72
2022/08/30 03:02:48;;;;;;;22.43;20.23;;;16.90;99.90;;;;;;4972934;28;20950;-73
2022/08/30 03:05:15;;;;;;;23.20;21.60;;;16.90;99.90;;;;;;4973336;28;20554;-72
2022/08/30 03:07:44;;;;;;;22.90;20.70;;;16.90;99.90;;;;;;4972960;28;20452;-72
2022/08/30 03:10:11;;;;;;;24.90;22.90;;;16.90;99.90;;;;;;4972483;28;20456;-72
2022/08/30 03:12:40;;;;;;;24.83;23.23;;;16.90;99.90;;;;;;4972114;28;20994;-72
2022/08/30 03:15:09;;;;;;;22.67;21.13;;;16.90;99.90;;;;;;4971713;28;20467;-72
2022/08/30 03:17:36;;;;;;;22.37;20.67;;;16.90;99.90;;;;;;4972522;28;20451;-72
2022/08/30 03:20:04;;;;;;;24.30;22.00;;;17.00;99.90;;;;;;4972201;28;20506;-72
2022/08/30 03:22:31;;;;;;;24.27;21.93;;;17.00;99.90;;;;;;4973059;28;20456;-72
2022/08/30 03:25:00;;;;;;;25.67;23.67;;;17.00;99.90;;;;;;4972680;28;20487;-72
2022/08/30 03:27:27;;;;;;;23.60;22.00;;;17.10;99.90;;;;;;4972729;28;20497;-72
2022/08/30 03:29:55;;;;;;;26.53;24.17;;;17.00;99.90;;;;;;4972765;28;20462;-72
2022/08/30 03:32:22;;;;;;;27.23;25.13;;;17.00;99.90;;;;;;4972634;28;20464;-72
2022/08/30 03:34:49;;;;;;;25.73;23.53;;;16.90;99.90;;;;;;4990889;28;20470;-72
2022/08/30 03:37:16;;;;;;;27.40;25.20;;;16.90;99.90;;;;;;4983996;28;20590;-72
2022/08/30 03:39:44;;;;;;;27.37;25.10;;;16.90;99.90;;;;;;4992073;28;20455;-72
2022/08/30 03:42:11;;;;;;;26.17;24.37;;;16.90;99.90;;;;;;4992106;28;20514;-72
2022/08/30 03:44:38;;;;;;;28.13;26.23;;;16.90;99.90;;;;;;4991931;28;20498;-72
2022/08/30 03:47:07;;;;;;;26.40;24.13;;;16.90;99.90;;;;;;4992389;28;20980;-72
2022/08/30 03:49:34;;;;;;;27.03;25.03;;;17.20;99.90;;;;;;4992048;28;20459;-72
2022/08/30 03:52:01;;;;;;;26.87;24.97;;;16.90;99.90;;;;;;4992030;28;20442;-72
2022/08/30 03:54:28;;;;;;;29.07;26.63;;;16.90;99.90;;;;;;4991984;28;20870;-72
2022/08/30 03:56:55;;;;;;;28.97;25.97;;;16.90;99.90;;;;;;4991871;28;20462;-72
2022/08/30 03:59:21;;;;;;;29.87;27.33;;;16.90;99.90;;;;;;4992025;28;20454;-71
2022/08/30 04:01:48;;;;;;;28.73;26.40;;;16.90;99.90;;;;;;4991982;28;20825;-71
2022/08/30 04:04:16;;;;;;;27.33;25.33;;;16.90;99.90;;;;;;4991465;28;20482;-72
2022/08/30 04:06:43;;;;;;;28.03;25.97;;;16.90;99.90;;;;;;4991585;28;20514;-72
2022/08/30 04:09:10;;;;;;;26.00;24.27;;;16.90;99.90;;;;;;4991486;28;20977;-72
2022/08/30 04:11:37;;;;;;;24.40;22.70;;;;;;;;;;4991416;28;20462;-72
2022/08/30 04:14:04;;;;;;;26.30;24.20;;;16.80;99.90;;;;;;4991694;28;20482;-72
2022/08/30 04:16:31;;;;;;;26.93;24.87;;;16.80;99.90;;;;;;4991842;28;20806;-73
2022/08/30 04:18:57;;;;;;;26.50;24.50;;;16.80;99.90;;;;;;4991856;28;20458;-72
2022/08/30 04:21:26;;;;;;;27.07;25.17;;;16.70;99.90;;;;;;4991211;28;20478;-72
2022/08/30 04:23:52;;;;;;;26.97;24.97;;;16.70;99.90;;;;;;4990781;28;20550;-72
2022/08/30 04:26:19;;;;;;;25.57;23.90;;;16.70;99.90;;;;;;4990977;28;20461;-72
2022/08/30 04:28:46;;;;;;;27.97;25.73;;;16.70;99.90;;;;;;4990968;28;20462;-72
2022/08/30 04:31:15;;;;;;;28.43;25.57;;;16.70;99.90;;;;;;4990192;28;20454;-72
2022/08/30 04:33:43;;;;;;;27.43;24.93;;;16.70;99.90;;;;;;4989982;28;20489;-72
2022/08/30 04:36:12;;;;;;;28.43;26.10;;;16.70;99.90;;;;;;4990675;28;20463;-72
2022/08/30 04:38:41;;;;;;;26.50;24.67;;;16.70;99.90;;;;;;4990610;28;20490;-73
2022/08/30 04:41:11;;;;;;;26.10;24.13;;;16.70;99.90;;;;;;4990694;28;20478;-71
2022/08/30 04:43:38;;;;;;;25.97;24.20;;;16.70;99.90;;;;;;4990528;28;20586;-72
2022/08/30 04:46:07;;;;;;;24.97;22.93;;;16.70;99.90;;;;;;4990840;28;20482;-72
2022/08/30 04:48:33;;;;;;;24.87;23.00;;;16.60;99.90;;;;;;4991219;28;20450;-73
2022/08/30 04:51:02;;;;;;;25.43;23.83;;;16.60;99.90;;;;;;4990682;28;20462;-73
2022/08/30 04:53:29;;;;;;;25.10;23.37;;;16.70;99.90;;;;;;4990830;28;20461;-72
2022/08/30 04:55:57;;;;;;;24.23;22.77;;;16.70;99.90;;;;;;4990609;28;20995;-72
2022/08/30 04:58:24;;;;;;;22.67;21.30;;;16.80;99.90;;;;;;4990677;28;20451;-73
2022/08/30 05:00:51;;;;;;;24.40;22.80;;;16.90;99.90;;;;;;4990526;28;20971;-72
2022/08/30 05:03:17;;;;;;;25.80;24.00;;;16.90;99.90;;;;;;4991041;28;20453;-72
2022/08/30 05:05:47;;;;;;;25.90;24.30;;;16.90;99.90;;;;;;4991095;28;20548;-72
2022/08/30 05:08:16;;;;;;;24.70;23.20;;;17.00;99.90;;;;;;4990843;28;20462;-72
2022/08/30 05:10:45;;;;;;;24.67;22.70;;;17.00;99.90;;;;;;4990700;28;20466;-72
2022/08/30 05:13:14;;;;;;;26.37;24.10;;;17.10;99.90;;;;;;4990785;28;20491;-72
2022/08/30 05:15:41;;;;;;;27.50;25.47;;;17.10;99.90;;;;;;4990459;28;20454;-73
2022/08/30 05:18:09;;;;;;;25.80;23.70;;;17.30;99.90;;;;;;4990195;28;20457;-73
2022/08/30 05:20:37;;;;;;;23.70;22.20;;;17.30;99.90;;;;;;4990437;28;20455;-73
2022/08/30 05:23:04;;;;;;;24.90;22.77;;;17.40;99.90;;;;;;4990694;28;20458;-74
2022/08/30 05:25:33;;;;;;;24.80;23.03;;;17.50;99.90;;;;;;4990387;28;20498;-73
2022/08/30 05:28:00;;;;;;;25.13;23.33;;;17.60;99.90;;;;;;4990143;28;20458;-74
2022/08/30 05:30:31;;;;;;;23.77;22.00;;;17.70;99.90;;;;;;4990052;28;20455;-74
2022/08/30 05:32:58;;;;;;;23.10;21.43;;;17.80;99.90;;;;;;4989996;28;20474;-73
2022/08/30 05:35:25;;;;;;;24.37;21.97;;;18.20;99.90;;;;;;4990444;28;20442;-73
2022/08/30 05:37:51;;;;;;;25.80;22.90;;;18.60;99.90;;;;;;4987005;28;20814;-72
2022/08/30 05:40:18;;;;;;;22.83;21.00;;;18.90;99.90;;;;;;4979341;28;20952;-72
2022/08/30 05:42:46;;;;;;;20.90;19.30;;;19.30;99.90;;;;;;4981333;28;20453;-73
2022/08/30 05:45:13;;;;;;;23.20;21.80;;;19.60;99.90;;;;;;4990207;28;20513;-73
2022/08/30 05:47:41;;;;;;;23.10;21.40;;;20.00;99.90;;;;;;4973905;28;20479;-74
2022/08/30 05:50:09;;;;;;;22.20;20.70;;;20.10;99.90;;;;;;4970610;28;20460;-75
2022/08/30 05:52:36;;;;;;;24.33;22.57;;;20.10;99.90;;;;;;4970736;28;20464;-74
2022/08/30 05:55:04;;;;;;;23.13;21.20;;;20.20;99.90;;;;;;4977965;28;20536;-73
2022/08/30 05:57:32;;;;;;;23.67;21.77;;;20.20;99.90;;;;;;4990413;28;20494;-75
2022/08/30 05:59:59;;;;;;;22.17;20.67;;;20.40;99.90;;;;;;4990198;28;20479;-75
2022/08/30 06:02:26;;;;;;;19.30;18.10;;;20.50;99.90;;;;;;4990086;28;20815;-74
2022/08/30 06:04:54;;;;;;;20.47;19.07;;;20.70;99.90;;;;;;4990057;28;20490;-74
2022/08/30 06:07:21;;;;;;;20.30;19.00;;;20.90;99.90;;;;;;4989901;28;20454;-74
2022/08/30 06:09:48;;;;;;;21.47;19.97;;;21.00;99.90;;;;;;4990196;28;20465;-74
2022/08/30 06:12:14;;;;;;;22.43;20.73;;;21.00;99.90;;;;;;4974056;28;20816;-73
2022/08/30 06:14:41;;;;;;;22.40;20.60;;;21.40;99.90;;;;;;4970657;28;20451;-75
2022/08/30 06:17:08;;;;;;;19.50;18.10;;;21.80;99.90;;;;;;4970670;28;20551;-74
2022/08/30 06:19:35;;;;;;;20.57;19.00;;;22.20;99.90;;;;;;4970801;28;20464;-75
2022/08/30 06:22:03;;;;;;;22.60;20.60;;;22.40;99.90;;;;;;4970989;28;20542;-74
2022/08/30 06:24:29;;;;;;;20.90;19.30;;;22.80;99.90;;;;;;4970877;28;20495;-74
2022/08/30 06:26:56;;;;;;;21.70;20.17;;;23.10;99.90;;;;;;4970494;28;20447;-75
2022/08/30 06:29:23;;;;;;;20.87;19.40;;;23.30;99.90;;;;;;4970805;28;20466;-75
2022/08/30 06:31:50;;;;;;;25.90;24.00;;;23.40;99.90;;;;;;4970737;28;20452;-74
2022/08/30 06:34:17;;;;;;;24.17;22.67;;;23.60;99.90;;;;;;4970548;28;20482;-74
2022/08/30 06:36:44;;;;;;;23.67;22.17;;;23.70;99.90;;;;;;4970562;28;20483;-76
2022/08/30 06:39:12;;;;;;;23.93;22.20;;;23.80;99.90;;;;;;4970518;28;20452;-73
2022/08/30 06:41:40;;;;;;;24.20;22.37;;;23.90;99.90;;;;;;4970322;28;20459;-74
2022/08/30 06:44:07;;;;;;;21.67;20.07;;;24.30;99.90;;;;;;4970513;28;20492;-74
2022/08/30 06:46:36;;;;;;;20.00;18.60;;;24.60;99.90;;;;;;4979998;28;20481;-74
2022/08/30 06:49:05;;;;;;;21.63;19.90;;;25.10;99.90;;;;;;4989959;28;20443;-76
2022/08/30 06:51:35;;;;;;;20.20;18.90;;;25.50;99.90;;;;;;4989898;28;20463;-76
2022/08/30 06:54:03;;;;;;;22.53;20.97;;;25.90;99.50;;;;;;4990078;28;20459;-76
2022/08/30 06:56:31;;;;;;;21.57;20.10;;;26.40;98.10;;;;;;4992241;28;20462;-75
2022/08/30 06:58:58;;;;;;;22.93;20.77;;;27.00;96.50;;;;;;4993229;28;20581;-76
2022/08/30 07:01:27;;;;;;;21.13;19.40;;;27.20;95.50;;;;;;4993069;28;20968;-75
2022/08/30 07:03:54;;;;;;;23.83;21.90;;;27.60;94.60;;;;;;4993013;28;20446;-75
2022/08/30 07:06:22;;;;;;;21.73;20.03;;;27.80;93.90;;;;;;4992715;28;20525;-76
2022/08/30 07:08:49;;;;;;;21.27;19.83;;;28.20;93.30;;;;;;4992623;28;20455;-76
2022/08/30 07:11:26;;;;;;;22.07;20.40;;;28.20;92.30;;;;;;4992997;28;20535;-75
2022/08/30 07:13:54;;;;;;;20.50;19.17;;;28.50;92.40;;;;;;4989705;28;20447;-76
2022/08/30 07:16:20;;;;;;;22.53;20.83;;;28.90;90.90;;;;;;4992250;28;20528;-76
2022/08/30 07:18:49;;;;;;;22.80;21.00;;;28.80;90.70;;;;;;4992637;28;20454;-75
2022/08/30 07:21:18;;;;;;;21.70;19.83;;;29.00;90.30;;;;;;4990209;28;20446;-75
2022/08/30 07:23:48;;;;;;;21.53;19.93;;;29.40;89.30;;;;;;4992421;28;20450;-75
2022/08/30 07:26:17;;;;;;;20.73;19.40;;;29.70;87.20;;;;;;4990014;28;20577;-75
2022/08/30 07:28:45;;;;;;;21.97;20.37;;;29.90;86.50;;;;;;4992148;28;20443;-75
2022/08/30 07:31:15;;;;;;;23.03;21.50;;;30.20;84.90;;;;;;4992493;28;20541;-76
2022/08/30 07:33:42;;;;;;;22.27;20.60;;;;;;;;;;4991905;28;20530;-75
2022/08/30 07:36:09;;;;;;;20.90;19.50;;;30.90;83.80;;;;;;4992025;28;20964;-76
2022/08/30 07:38:36;;;;;;;21.53;20.20;;;30.80;81.20;;;;;;4991867;28;20475;-76
2022/08/30 07:41:03;;;;;;;22.83;21.30;;;31.40;79.40;;;;;;4992340;28;20520;-75
2022/08/30 07:43:31;;;;;;;21.60;20.30;;;31.80;78.60;;;;;;4991910;28;20485;-75
2022/08/30 07:46:01;;;;;;;22.27;20.70;;;32.00;77.20;;;;;;4991744;28;20991;-76
2022/08/30 07:48:29;;;;;;;21.57;20.00;;;32.30;75.60;;;;;;4991982;28;20447;-75
2022/08/30 07:50:56;;;;;;;19.77;18.60;;;32.20;74.30;;;;;;4989754;28;20451;-74
2022/08/30 07:53:23;;;;;;;18.63;17.53;;;31.90;75.40;;;;;;4989921;28;20455;-76
2022/08/30 07:55:50;;;;;;;19.00;18.00;;;31.90;74.80;;;;;;4991951;28;20435;-75
2022/08/30 07:58:16;;;;;;;19.63;18.57;;;31.70;75.00;;;;;;4992080;28;20816;-75
2022/08/30 08:00:43;;;;;;;20.23;19.13;;;31.10;76.70;;;;;;4992141;28;20516;-76
2022/08/30 08:03:10;;;;;;;20.80;19.73;;;30.70;78.70;;;;;;4991753;28;20541;-75
2022/08/30 08:05:40;;;;;;;19.70;18.60;;;30.50;79.50;;;;;;4991958;28;20853;-76
2022/08/30 08:08:07;;;;;;;19.87;18.87;;;31.00;78.20;;;;;;4991647;28;20446;-76
2022/08/30 08:10:35;;;;;;;20.57;19.37;;;32.10;74.70;;;;;;4989493;28;20456;-76
2022/08/30 08:13:02;;;;;;;19.40;18.40;;;32.70;73.60;;;;;;4991795;28;20868;-76
2022/08/30 08:15:29;;;;;;;19.90;18.80;;;32.70;72.70;;;;;;4992063;28;20451;-76
2022/08/30 08:17:56;;;;;;;19.90;18.67;;;32.70;72.10;;;;;;4992204;28;20474;-73
2022/08/30 08:20:25;;;;;;;19.17;17.97;;;33.20;71.20;;;;;;4991960;28;20609;-73
2022/08/30 08:22:53;;;;;;;20.30;19.10;;;33.80;69.60;;;;;;4991895;28;20463;-71
2022/08/30 08:25:20;;;;;;;20.97;19.97;;;33.90;68.80;;;;;;4989605;28;20502;-72
2022/08/30 08:27:47;;;;;;;20.43;19.27;;;34.40;67.30;;;;;;4991785;28;20459;-72
2022/08/30 08:30:15;;;;;;;20.83;19.13;;;34.00;67.20;;;;;;4991361;28;20502;-73
2022/08/30 08:32:41;;;;;;;20.03;18.93;;;33.90;67.70;;;;;;4991440;28;20465;-73
2022/08/30 08:35:10;;;;;;;21.57;20.27;;;33.90;67.60;;;;;;4991373;28;20455;-73
2022/08/30 08:37:37;;;;;;;20.10;19.10;;;34.60;68.90;;;;;;4991379;28;21019;-72
2022/08/30 08:40:07;;;;;;;19.60;18.40;;;34.70;65.40;;;;;;4991350;28;20454;-74
2022/08/30 08:42:48;;;;;;;19.20;18.00;;;34.80;64.70;;;;;;4991369;28;20454;-73
2022/08/30 08:45:19;;;;;;;20.40;19.30;;;34.50;65.20;;;;;;4991116;28;20486;-73
2022/08/30 08:47:57;;;;;;;18.60;17.70;;;34.10;65.90;;;;;;4991310;28;20458;-73
2022/08/30 08:50:24;;;;;;;21.20;19.30;;;35.00;64.70;;;;;;4991213;28;20449;-74
2022/08/30 08:55:46;;;;;;;20.27;18.97;;;36.00;61.80;;;;;;4991237;28;20895;-74
2022/08/30 08:58:22;;;;;;;18.80;17.70;;;35.50;61.20;;;;;;4991022;28;20462;-73
2022/08/30 09:00:49;;;;;;;22.77;20.83;;;36.10;59.90;;;;;;4991065;28;20462;-74
2022/08/30 09:03:18;;;;;;;21.10;19.93;;;35.70;61.20;;;;;;4991212;28;20455;-72
2022/08/30 09:05:45;;;;;;;20.70;19.33;;;36.20;60.00;;;;;;4990750;28;20487;-74
2022/08/30 09:08:15;;;;;;;20.67;19.30;;;36.90;58.20;;;;;;4990741;28;20455;-75
2022/08/30 09:10:50;;;;;;;20.80;19.50;;;36.90;57.70;;;;;;4990799;28;20446;-74
2022/08/30 09:13:17;;;;;;;19.97;18.90;;;37.20;56.70;;;;;;4990903;28;20868;-73
2022/08/30 09:15:43;;;;;;;20.87;19.57;;;37.20;56.10;;;;;;4990719;28;20455;-74
2022/08/30 09:18:10;;;;;;;20.03;19.07;;;37.90;54.60;;;;;;4990094;28;20451;-74
2022/08/30 09:20:40;;;;;;;19.20;18.20;;;38.00;55.20;;;;;;4990722;28;20462;-75
2022/08/30 09:23:22;;;;;;;19.13;18.33;;;38.00;54.30;;;;;;4990829;28;20541;-74
2022/08/30 09:25:57;;;;;;;19.67;18.77;;;38.00;53.70;;;;;;4990593;28;20490;-75
2022/08/30 09:28:27;;;;;;;19.83;19.03;;;38.20;53.00;;;;;;4990537;28;21015;-72
2022/08/30 09:31:03;;;;;;;20.70;19.60;;;38.50;52.70;;;;;;4990415;28;20463;-73
2022/08/30 09:33:29;;;;;;;21.90;20.80;;;38.30;52.80;;;;;;4990555;28;20561;-73
2022/08/30 09:35:57;;;;;;;19.87;18.90;;;38.90;52.20;;;;;;4990365;28;20446;-74
2022/08/30 09:38:28;;;;;;;20.03;19.00;;;39.30;50.70;;;;;;4990387;28;20997;-73
2022/08/30 09:40:58;;;;;;;20.10;19.00;;;38.70;51.30;;;;;;4990479;28;20557;-74
2022/08/30 09:43:27;;;;;;;17.93;17.03;;;38.80;51.50;;;;;;4990665;28;20845;-74
2022/08/30 09:46:09;;;;;;;21.07;19.70;;;39.20;50.90;;;;;;4990341;28;20593;-72
2022/08/30 09:48:39;;;;;;;19.57;18.50;;;39.50;49.60;;;;;;4990309;28;20458;-73
2022/08/30 09:51:28;;;;;;;20.23;18.80;;;39.80;48.80;;;;;;4990329;28;20517;-74
2022/08/30 09:54:04;;;;;;;20.70;19.30;;;39.80;48.80;;;;;;4990433;28;20446;-74
2022/08/30 09:56:39;;;;;;;21.07;19.77;;;39.90;48.30;;;;;;4990523;28;20446;-74
2022/08/30 09:59:15;;;;;;;19.97;18.80;;;39.60;48.10;;;;;;4990633;28;20454;-74
2022/08/30 10:01:46;;;;;;;20.67;19.57;;;39.00;48.80;;;;;;4990504;28;20457;-74
2022/08/30 10:04:18;;;;;;;19.63;18.63;;;39.10;48.50;;;;;;4990024;28;20944;-73
2022/08/30 10:06:51;;;;;;;20.63;19.43;;;38.50;48.80;;;;;;4989752;28;20498;-73
2022/08/30 10:09:27;;;;;;;19.30;18.50;;;37.50;49.70;;;;;;4990380;28;20455;-72
2022/08/30 10:12:03;;;;;;;20.93;19.83;;;37.90;49.50;;;;;;4989993;28;20477;-73
2022/08/30 10:14:42;;;;;;;20.43;19.53;;;37.90;48.10;;;;;;4990280;28;20479;-72
2022/08/30 10:17:15;;;;;;;18.70;17.90;;;38.80;47.10;;;;;;4989595;28;20454;-73
2022/08/30 10:19:59;;;;;;;17.57;16.87;;;38.00;45.00;;;;;;4989963;28;20455;-73
2022/08/30 10:22:30;;;;;;;18.27;17.57;;;36.20;46.80;;;;;;4990144;28;20454;-73
2022/08/30 10:25:05;;;;;;;19.30;18.50;;;35.90;48.60;;;;;;4990231;28;20849;-73
2022/08/30 10:27:38;;;;;;;18.63;17.83;;;36.20;47.00;;;;;;4990516;28;20460;-73
2022/08/30 10:30:09;;;;;;;18.03;17.33;;;36.10;47.60;;;;;;4992170;28;20671;-74
2022/08/30 10:32:41;;;;;;;17.70;17.00;;;35.60;48.90;;;;;;4994022;28;20486;-73
2022/08/30 10:35:11;;;;;;;18.57;17.67;;;36.30;47.80;;;;;;4993776;28;20944;-73
2022/08/30 10:37:42;;;;;;;18.07;17.40;;;36.00;48.20;;;;;;4993593;28;20548;-73
2022/08/30 10:43:04;;;;;;;17.93;17.20;;;37.10;47.00;;;;;;4993735;28;20426;-73
2022/08/30 10:45:35;;;;;;;19.20;18.40;;;37.90;46.20;;;;;;4993823;28;20493;-72
2022/08/30 10:48:08;;;;;;;17.37;16.77;;;38.60;44.30;;;;;;4993766;28;20470;-72
2022/08/30 10:50:41;;;;;;;18.87;17.90;;;37.00;44.20;;;;;;4993642;28;20451;-72
2022/08/30 10:53:14;;;;;;;18.33;17.47;;;37.00;44.80;;;;;;4993652;28;20787;-73
2022/08/30 10:55:45;;;;;;;20.23;19.37;;;37.00;46.40;;;;;;4993526;28;20454;-73
2022/08/30 10:58:16;;;;;;;18.80;18.00;;;37.20;46.50;;;;;;4993646;28;20454;-72
2022/08/30 11:00:58;;;;;;;17.13;16.43;;;37.70;45.50;;;;;;4993438;28;20463;-72
2022/08/30 11:03:49;;;;;;;18.50;17.70;;;38.60;44.90;;;;;;4993286;28;20454;-72
2022/08/30 11:06:22;;;;;;;18.87;17.93;;;38.40;44.00;;;;;;4993382;28;20482;-73
2022/08/30 11:09:23;;;;;;;18.50;17.70;;;36.90;45.00;;;;;;4991510;28;20929;-72
2022/08/30 11:12:16;;;;;;;17.63;16.93;;;35.10;48.00;;;;;;4993123;28;20855;-76
2022/08/30 11:14:45;;;;;;;18.70;17.87;;;34.70;47.80;;;;;;4991211;28;20451;-76
2022/08/30 11:17:25;;;;;;;18.27;17.57;;;35.00;47.60;;;;;;4992420;28;20454;-73
2022/08/30 11:19:54;;;;;;;17.97;17.17;;;36.00;46.50;;;;;;4992235;28;20443;-74
2022/08/30 11:22:24;;;;;;;18.60;17.80;;;37.50;45.10;;;;;;4992256;28;20455;-72
2022/08/30 11:25:04;;;;;;;18.77;17.87;;;38.30;43.10;;;;;;4992034;28;20443;-71
2022/08/30 11:27:51;;;;;;;17.93;17.10;;;36.80;44.50;;;;;;4990830;28;20707;-71
2022/08/30 11:31:03;;;;;;;18.30;17.50;;;34.80;46.00;;;;;;4988936;28;20462;-71
2022/08/30 11:33:47;;;;;;;17.73;16.93;;;33.80;48.40;;;;;;4986617;28;20513;-74
2022/08/30 11:36:47;;;;;;;17.77;16.97;;;32.70;49.10;;;;;;4991910;28;20818;-72
2022/08/30 11:39:53;;;;;;;17.80;17.10;;;33.40;49.30;;;;;;4991931;28;20505;-73
2022/08/30 11:42:34;;;;;;;17.77;17.07;;;34.50;47.80;;;;;;4991331;28;20447;-73
2022/08/30 11:45:38;;;;;;;18.80;17.97;;;35.20;46.80;;;;;;4992226;28;20451;-74
2022/08/30 11:48:09;;;;;;;18.43;17.73;;;36.00;45.30;;;;;;4992089;28;20517;-73
2022/08/30 11:50:49;;;;;;;18.70;17.90;;;36.10;45.50;;;;;;4991738;28;20458;-72
2022/08/30 11:53:23;;;;;;;18.63;17.83;;;36.30;45.10;;;;;;4990695;28;20454;-72
2022/08/30 11:55:59;;;;;;;17.80;17.00;;;36.20;45.20;;;;;;4992215;28;20455;-74
2022/08/30 11:58:42;;;;;;;18.00;17.27;;;35.70;45.50;;;;;;4991726;28;21219;-74
2022/08/30 12:01:16;;;;;;;18.37;17.67;;;35.70;46.20;;;;;;4991818;28;20980;-73
2022/08/30 12:03:53;;;;;;;18.23;17.50;;;35.20;46.40;;;;;;4991715;28;20455;-74
2022/08/30 12:06:48;;;;;;;18.37;17.47;;;34.80;46.50;;;;;;4991626;28;20494;-74
2022/08/30 12:10:03;;;;;;;17.93;17.23;;;35.30;46.70;;;;;;4991859;28;20453;-73
2022/08/30 12:12:52;;;;;;;16.97;16.17;;;35.20;46.20;;;;;;4991860;28;20944;-73
2022/08/30 12:15:58;;;;;;;17.40;16.20;;;35.10;46.80;;;;;;4991934;28;20524;-73
2022/08/30 12:18:42;;;;;;;17.60;16.73;;;34.40;47.70;;;;;;4991644;28;20451;-73
2022/08/30 12:21:27;;;;;;;17.80;17.00;;;34.10;48.20;;;;;;4991362;28;20454;-73
2022/08/30 12:23:58;;;;;;;16.70;15.90;;;33.60;48.80;;;;;;4991436;28;21075;-72
2022/08/30 12:26:34;;;;;;;17.13;16.23;;;33.30;49.90;;;;;;4991318;28;20980;-73
2022/08/30 12:29:15;;;;;;;16.80;16.00;;;33.30;50.00;;;;;;4991573;28;20948;-72
2022/08/30 12:31:46;;;;;;;15.93;15.20;;;33.40;49.50;;;;;;4991249;28;20485;-72
2022/08/30 12:34:20;;;;;;;16.50;15.80;;;33.10;49.70;;;;;;4991050;28;20474;-73
2022/08/30 12:36:56;;;;;;;16.93;16.23;;;33.80;49.70;;;;;;4991281;28;20481;-73
2022/08/30 12:39:26;;;;;;;17.83;17.03;;;34.40;48.10;;;;;;4991216;28;20453;-73
2022/08/30 12:41:53;;;;;;;17.90;17.07;;;34.40;48.00;;;;;;4991049;28;20451;-73
2022/08/30 12:44:22;;;;;;;16.97;16.07;;;35.00;47.60;;;;;;4991095;28;20538;-72
2022/08/30 12:46:54;;;;;;;17.73;16.87;;;35.20;47.20;;;;;;4991293;28;20545;-73
2022/08/30 12:49:25;;;;;;;17.60;16.80;;;35.90;46.70;;;;;;4991052;28;20796;-72
2022/08/30 12:51:54;;;;;;;19.50;18.60;;;36.70;45.60;;;;;;4990909;28;20455;-72
2022/08/30 12:54:26;;;;;;;17.40;16.50;;;38.00;44.50;;;;;;4989590;28;20486;-72
2022/08/30 12:57:01;;;;;;;18.70;17.70;;;38.60;42.60;;;;;;4990558;28;20473;-73
2022/08/30 12:59:51;;;;;;;17.87;17.10;;;38.60;42.20;;;;;;4990654;28;20450;-73
2022/08/30 13:02:20;;;;;;;17.70;16.90;;;38.20;42.50;;;;;;4990763;28;20493;-73
2022/08/30 13:04:49;;;;;;;17.47;16.77;;;37.10;43.40;;;;;;4990882;28;20454;-73
2022/08/30 13:07:32;;;;;;;18.37;17.47;;;36.20;44.70;;;;;;4990741;28;20494;-72
2022/08/30 13:10:03;;;;;;;17.43;16.40;;;35.50;45.70;;;;;;4990649;28;20458;-72
2022/08/30 13:12:30;;;;;;;17.87;16.77;;;34.80;46.60;;;;;;4991004;28;20462;-72
2022/08/30 13:15:17;;;;;;;17.50;16.70;;;34.50;46.90;;;;;;4990546;28;20542;-72
2022/08/30 13:17:44;;;;;;;16.27;15.67;;;34.00;47.20;;;;;;4990312;28;20462;-72
2022/08/30 13:20:24;;;;;;;18.23;17.30;;;33.80;47.80;;;;;;4990163;28;20466;-72
2022/08/30 13:23:05;;;;;;;15.97;15.37;;;34.30;47.80;;;;;;4990485;28;20465;-72
2022/08/30 13:25:31;;;;;;;17.30;16.40;;;35.00;46.10;;;;;;4991010;28;20865;-72
2022/08/30 13:28:00;;;;;;;16.93;16.27;;;35.70;45.00;;;;;;4990535;28;20513;-72
2022/08/30 13:30:26;;;;;;;18.53;17.73;;;36.20;44.40;;;;;;4990522;28;20454;-73
2022/08/30 13:32:53;;;;;;;17.57;16.80;;;35.80;45.50;;;;;;4990285;28;20462;-73
2022/08/30 13:35:20;;;;;;;17.17;16.37;;;35.10;45.90;;;;;;4990394;28;20968;-73
2022/08/30 13:37:47;;;;;;;17.00;16.20;;;34.70;47.00;;;;;;4978483;28;20466;-73
2022/08/30 13:40:16;;;;;;;16.53;15.83;;;34.80;47.60;;;;;;4970711;28;20925;-72
2022/08/30 13:42:43;;;;;;;16.40;15.70;;;34.60;47.80;;;;;;4970627;28;20526;-73
2022/08/30 13:45:12;;;;;;;16.17;15.57;;;35.10;47.50;;;;;;4970487;28;20458;-73
2022/08/30 13:47:39;;;;;;;16.80;16.10;;;35.10;47.70;;;;;;4968601;28;21065;-73
2022/08/30 13:50:06;;;;;;;17.67;16.83;;;34.60;48.10;;;;;;4970528;28;20460;-72
2022/08/30 13:52:33;;;;;;;16.47;15.67;;;34.10;48.40;;;;;;4970732;28;20460;-72
2022/08/30 13:55:00;;;;;;;16.63;15.90;;;33.80;48.60;;;;;;4970766;28;20452;-72
2022/08/30 13:57:30;;;;;;;16.33;15.50;;;33.50;48.90;;;;;;4970475;28;20455;-72
2022/08/30 13:59:57;;;;;;;16.30;15.60;;;33.30;49.60;;;;;;4970363;28;20471;-72
2022/08/30 14:02:24;;;;;;;17.53;16.50;;;33.20;49.20;;;;;;4970324;28;20479;-73
2022/08/30 14:04:51;;;;;;;17.40;16.30;;;33.50;49.20;;;;;;4971914;28;20459;-73
2022/08/30 14:07:17;;;;;;;15.83;15.13;;;33.20;49.90;;;;;;4974432;28;20904;-72
2022/08/30 14:09:44;;;;;;;16.00;15.10;;;33.40;50.00;;;;;;4974590;28;20454;-72
2022/08/30 14:12:11;;;;;;;15.87;15.17;;;33.30;49.40;;;;;;4974228;28;20843;-72
2022/08/30 14:14:39;;;;;;;15.53;14.93;;;33.30;50.10;;;;;;4974301;28;20459;-72
2022/08/30 14:17:05;;;;;;;15.90;15.10;;;33.00;49.80;;;;;;4974543;28;20458;-72
2022/08/30 14:19:32;;;;;;;15.53;14.63;;;32.50;50.60;;;;;;4974433;28;20804;-73
2022/08/30 14:21:59;;;;;;;16.23;15.53;;;32.30;51.80;;;;;;4974318;28;20455;-72
2022/08/30 14:24:25;;;;;;;15.77;15.17;;;32.70;50.90;;;;;;4974347;28;20536;-72
2022/08/30 14:26:52;;;;;;;16.90;16.17;;;32.50;50.60;;;;;;4973923;28;20511;-73
2022/08/30 14:29:23;;;;;;;16.97;16.27;;;32.30;51.20;;;;;;4974364;28;20459;-72
2022/08/30 14:31:51;;;;;;;16.70;15.97;;;32.10;51.20;;;;;;4974163;28;20455;-73
2022/08/30 14:34:18;;;;;;;16.40;15.70;;;31.60;51.10;;;;;;4974286;28;20487;-72
2022/08/30 14:36:46;;;;;;;16.60;15.90;;;31.30;52.20;;;;;;4977424;28;20481;-72
2022/08/30 14:39:16;;;;;;;17.00;16.03;;;31.20;52.60;;;;;;4994007;28;20462;-72
2022/08/30 14:41:45;;;;;;;15.93;15.20;;;31.10;52.70;;;;;;4994203;28;20873;-72
2022/08/30 14:44:14;;;;;;;17.10;16.30;;;31.20;51.80;;;;;;4993647;28;20462;-72
2022/08/30 14:46:40;;;;;;;16.50;15.77;;;31.30;51.50;;;;;;4993350;28;20799;-72
2022/08/30 14:49:09;;;;;;;16.90;16.10;;;31.40;51.00;;;;;;4993111;28;20963;-73
2022/08/30 14:51:35;;;;;;;15.97;15.27;;;31.20;54.30;;;;;;4993226;28;20459;-72
2022/08/30 14:54:02;;;;;;;16.37;15.47;;;31.30;54.80;;;;;;4993608;28;20457;-72
2022/08/30 14:56:29;;;;;;;16.50;15.67;;;31.00;54.20;;;;;;4993345;28;20941;-73
2022/08/30 14:58:59;;;;;;;16.17;15.47;;;30.40;55.70;;;;;;4993047;28;20458;-72
2022/08/30 15:01:27;;;;;;;15.33;14.53;;;30.00;56.80;;;;;;4993437;28;20461;-72
2022/08/30 15:03:53;;;;;;;16.63;15.90;;;29.90;57.20;;;;;;4993279;28;20446;-72
2022/08/30 15:06:22;;;;;;;16.13;15.17;;;29.90;58.20;;;;;;4993755;28;20858;-72
2022/08/30 15:08:49;;;;;;;16.17;15.47;;;30.10;57.90;;;;;;4993723;28;20955;-72
2022/08/30 15:11:18;;;;;;;17.00;16.00;;;30.10;57.80;;;;;;4993455;28;20454;-71
2022/08/30 15:13:45;;;;;;;16.80;16.00;;;29.80;57.10;;;;;;4992197;28;20502;-73
2022/08/30 15:16:15;;;;;;;16.27;15.37;;;29.70;57.30;;;;;;4991666;28;20682;-72
2022/08/30 15:18:42;;;;;;;14.90;14.20;;;29.70;57.50;;;;;;4992317;28;20466;-73
2022/08/30 15:21:09;;;;;;;15.90;15.10;;;29.60;57.70;;;;;;4992456;28;20603;-71
2022/08/30 15:23:37;;;;;;;15.40;14.70;;;29.50;57.70;;;;;;4990682;28;20463;-72
2022/08/30 15:26:04;;;;;;;16.53;15.63;;;29.60;57.80;;;;;;4992765;28;20447;-72
2022/08/30 15:28:31;;;;;;;15.70;14.90;;;29.60;57.80;;;;;;4992738;28;20482;-73